Time,TemperatureF,DewpointF,PressureIn,WindDirection,WindDirectionDegrees,WindSpeedMPH,WindSpeedGustMPH,Humidity,HourlyPrecipIn,Conditions,Clouds,dailyrainin,SolarRadiationWatts/m^2,SoftwareType,DateUTC
2013-03-21 00:08:00,32.6,23.0,29.80,WSW,240,0.0,3.0,67,0.00,,,0.00,0,weatherlink.com 1.10,2013-03-21 04:08:00,
2013-03-21 00:23:00,32.1,22.0,29.79,WSW,240,0.0,0.0,67,0.00,,,0.00,0,weatherlink.com 1.10,2013-03-21 04:23:00,
2013-03-21 00:38:00,31.5,22.0,29.79,WSW,240,0.0,0.0,68,0.00,,,0.00,0,weatherlink.com 1.10,2013-03-21 04:38:00,
2013-03-21 00:53:00,30.9,22.0,29.79,WSW,240,0.0,1.0,69,0.00,,,0.00,0,weatherlink.com 1.10,2013-03-21 04:53:00,
2013-03-21 01:08:00,30.5,22.0,29.80,WSW,240,0.0,2.0,70,0.00,,,0.00,0,weatherlink.com 1.10,2013-03-21 05:08:00,
2013-03-21 01:23:00,30.3,22.0,29.80,WSW,240,3.0,3.0,71,0.00,,,0.00,0,weatherlink.com 1.10,2013-03-21 05:23:00,
2013-03-21 01:38:00,30.1,22.0,29.80,WSW,240,0.0,2.0,72,0.00,,,0.00,0,weatherlink.com 1.10,2013-03-21 05:38:00,
2013-03-21 01:53:00,29.8,22.0,29.80,WSW,240,0.0,2.0,72,0.00,,,0.00,0,weatherlink.com 1.10,2013-03-21 05:53:00,
2013-03-21 02:08:00,29.5,21.0,29.80,WSW,240,0.0,0.0,71,0.00,,,0.00,0,weatherlink.com 1.10,2013-03-21 06:08:00,
2013-03-21 02:23:00,29.5,22.0,29.80,WSW,240,0.0,3.0,74,0.00,,,0.00,0,weatherlink.com 1.10,2013-03-21 06:23:00,
2013-03-21 02:38:00,29.7,22.0,29.80,WSW,240,0.0,3.0,74,0.00,,,0.00,0,weatherlink.com 1.10,2013-03-21 06:38:00,
2013-03-21 02:53:00,29.6,22.0,29.79,WSW,240,0.0,5.0,74,0.00,,,0.00,0,weatherlink.com 1.10,2013-03-21 06:53:00,
2013-03-21 03:08:00,29.8,22.0,29.79,WSW,240,0.0,0.0,73,0.00,,,0.00,0,weatherlink.com 1.10,2013-03-21 07:08:00,
2013-03-21 03:23:00,29.6,22.0,29.79,WSW,240,0.0,0.0,73,0.00,,,0.00,0,weatherlink.com 1.10,2013-03-21 07:23:00,
2013-03-21 03:38:00,29.6,22.0,29.79,WSW,240,2.0,4.0,73,0.00,,,0.00,0,weatherlink.com 1.10,2013-03-21 07:38:00,
2013-03-21 03:53:00,29.8,22.0,29.78,WSW,240,0.0,3.0,72,0.00,,,0.00,0,weatherlink.com 1.10,2013-03-21 07:53:00,
2013-03-21 04:08:00,30.5,21.0,29.78,WNW,294,1.0,8.0,68,0.00,,,0.00,0,weatherlink.com 1.10,2013-03-21 08:08:00,
2013-03-21 04:23:00,31.0,21.0,29.77,WNW,294,0.0,8.0,67,0.00,,,0.00,0,weatherlink.com 1.10,2013-03-21 08:23:00,
2013-03-21 04:38:00,30.7,21.0,29.77,WNW,294,0.0,4.0,68,0.00,,,0.00,0,weatherlink.com 1.10,2013-03-21 08:38:00,
2013-03-21 04:54:00,30.3,21.0,29.77,WNW,298,0.0,8.0,69,0.00,,,0.00,0,weatherlink.com 1.10,2013-03-21 08:54:00,
2013-03-21 05:08:00,30.4,21.0,29.77,WNW,298,1.0,7.0,69,0.00,,,0.00,0,weatherlink.com 1.10,2013-03-21 09:08:00,
2013-03-21 05:24:00,30.7,21.0,29.77,WNW,302,0.0,7.0,68,0.00,,,0.00,0,weatherlink.com 1.10,2013-03-21 09:24:00,
2013-03-21 05:39:00,30.7,21.0,29.77,NW,304,2.0,8.0,68,0.00,,,0.00,0,weatherlink.com 1.10,2013-03-21 09:39:00,
2013-03-21 05:54:00,30.7,21.0,29.77,NW,305,1.0,7.0,68,0.00,,,0.00,0,weatherlink.com 1.10,2013-03-21 09:54:00,
2013-03-21 06:09:00,30.7,21.0,29.77,NW,305,0.0,3.0,68,0.00,,,0.00,0,weatherlink.com 1.10,2013-03-21 10:09:00,
2013-03-21 06:24:00,30.7,22.0,29.77,NW,305,0.0,0.0,69,0.00,,,0.00,0,weatherlink.com 1.10,2013-03-21 10:24:00,
2013-03-21 06:39:00,30.7,22.0,29.77,NW,305,0.0,0.0,69,0.00,,,0.00,0,weatherlink.com 1.10,2013-03-21 10:39:00,
2013-03-21 06:54:00,30.7,22.0,29.77,NW,305,0.0,5.0,69,0.00,,,0.00,0,weatherlink.com 1.10,2013-03-21 10:54:00,
2013-03-21 07:09:00,30.8,21.0,29.78,NW,305,0.0,3.0,68,0.00,,,0.00,18,weatherlink.com 1.10,2013-03-21 11:09:00,
2013-03-21 07:24:00,30.9,21.0,29.78,NW,306,3.0,7.0,68,0.00,,,0.00,60,weatherlink.com 1.10,2013-03-21 11:24:00,
2013-03-21 07:39:00,31.1,22.0,29.77,NW,306,0.0,5.0,68,0.00,,,0.00,32,weatherlink.com 1.10,2013-03-21 11:39:00,
2013-03-21 07:54:00,31.1,22.0,29.77,NW,308,3.0,8.0,68,0.00,,,0.00,58,weatherlink.com 1.10,2013-03-21 11:54:00,
2013-03-21 08:09:00,31.4,22.0,29.77,NW,308,0.0,6.0,67,0.00,,,0.00,65,weatherlink.com 1.10,2013-03-21 12:09:00,
2013-03-21 08:24:00,32.0,22.0,29.77,NW,308,0.0,4.0,68,0.00,,,0.00,127,weatherlink.com 1.10,2013-03-21 12:24:00,
2013-03-21 08:39:00,33.1,22.0,29.77,NW,308,3.0,7.0,64,0.00,,,0.00,204,weatherlink.com 1.10,2013-03-21 12:39:00,
2013-03-21 08:54:00,33.4,22.0,29.76,NW,308,0.0,8.0,64,0.00,,,0.00,206,weatherlink.com 1.10,2013-03-21 12:54:00,
2013-03-21 09:09:00,34.1,23.0,29.76,NW,311,3.0,9.0,63,0.00,,,0.00,113,weatherlink.com 1.10,2013-03-21 13:09:00,
2013-03-21 09:24:00,33.9,20.0,29.76,NW,308,4.0,9.0,58,0.00,,,0.00,114,weatherlink.com 1.10,2013-03-21 13:24:00,
2013-03-21 09:54:00,34.4,20.0,29.76,NW,313,1.0,3.0,55,0.00,,,0.00,257,weatherlink.com 1.10,2013-03-21 13:54:00,
2013-03-21 10:09:00,34.8,19.0,29.76,NW,321,2.0,7.0,53,0.00,,,0.00,555,weatherlink.com 1.10,2013-03-21 14:09:00,
2013-03-21 10:24:00,35.0,20.0,29.75,NNW,344,3.0,10.0,55,0.01,,,0.01,357,weatherlink.com 1.10,2013-03-21 14:24:00,
2013-03-21 10:39:00,35.4,21.0,29.75,North,355,0.0,3.0,55,0.01,,,0.01,216,weatherlink.com 1.10,2013-03-21 14:39:00,
2013-03-21 10:54:00,35.0,21.0,29.75,NNE,23,0.0,8.0,56,0.01,,,0.01,158,weatherlink.com 1.10,2013-03-21 14:54:00,
2013-03-21 11:09:00,34.3,19.0,29.74,NNE,23,1.0,5.0,54,0.01,,,0.01,267,weatherlink.com 1.10,2013-03-21 15:09:00,
2013-03-21 11:24:00,33.9,18.0,29.74,NNE,23,0.0,3.0,53,0.00,,,0.01,204,weatherlink.com 1.10,2013-03-21 15:24:00,
2013-03-21 11:39:00,34.3,20.0,29.73,NNE,23,3.0,4.0,56,0.00,,,0.01,174,weatherlink.com 1.10,2013-03-21 15:39:00,
2013-03-21 11:54:00,34.3,20.0,29.73,NNE,23,3.0,3.0,56,0.00,,,0.01,169,weatherlink.com 1.10,2013-03-21 15:54:00,
2013-03-21 12:09:00,34.6,20.0,29.73,NNE,23,0.0,0.0,55,0.00,,,0.01,257,weatherlink.com 1.10,2013-03-21 16:09:00,
2013-03-21 12:24:00,34.8,21.0,29.72,NNE,23,3.0,6.0,58,0.00,,,0.01,137,weatherlink.com 1.10,2013-03-21 16:24:00,
2013-03-21 12:39:00,34.7,21.0,29.71,NNE,24,2.0,7.0,57,0.00,,,0.01,257,weatherlink.com 1.10,2013-03-21 16:39:00,
2013-03-21 12:54:00,35.1,22.0,29.70,NNE,24,5.0,5.0,60,0.00,,,0.01,295,weatherlink.com 1.10,2013-03-21 16:54:00,
2013-03-21 13:10:00,34.4,24.0,29.70,NNE,17,5.0,8.0,66,0.00,,,0.01,262,weatherlink.com 1.10,2013-03-21 17:10:00,
2013-03-21 13:24:00,34.3,24.0,29.69,NNE,16,1.0,7.0,67,0.00,,,0.01,206,weatherlink.com 1.10,2013-03-21 17:24:00,
2013-03-21 13:39:00,33.6,24.0,29.68,NNE,16,2.0,4.0,68,0.00,,,0.01,139,weatherlink.com 1.10,2013-03-21 17:39:00,
2013-03-21 13:55:00,33.9,25.0,29.68,NNE,16,0.0,2.0,71,0.00,,,0.01,232,weatherlink.com 1.10,2013-03-21 17:55:00,
2013-03-21 14:10:00,34.0,25.0,29.67,NNE,16,0.0,4.0,70,0.00,,,0.01,162,weatherlink.com 1.10,2013-03-21 18:10:00,
2013-03-21 14:25:00,33.8,25.0,29.66,NNE,16,0.0,2.0,71,0.00,,,0.01,271,weatherlink.com 1.10,2013-03-21 18:25:00,
2013-03-21 14:40:00,34.0,25.0,29.64,NNE,16,0.0,0.0,70,0.00,,,0.01,248,weatherlink.com 1.10,2013-03-21 18:40:00,
2013-03-21 14:55:00,34.2,25.0,29.64,NNE,16,3.0,5.0,70,0.00,,,0.01,144,weatherlink.com 1.10,2013-03-21 18:55:00,
2013-03-21 15:10:00,34.4,26.0,29.63,NNE,20,4.0,6.0,71,0.00,,,0.01,135,weatherlink.com 1.10,2013-03-21 19:10:00,
2013-03-21 15:25:00,34.4,26.0,29.63,NNE,23,5.0,7.0,71,0.00,,,0.01,188,weatherlink.com 1.10,2013-03-21 19:25:00,
2013-03-21 15:40:00,34.2,26.0,29.62,NE,38,5.0,8.0,72,0.00,,,0.01,169,weatherlink.com 1.10,2013-03-21 19:40:00,
2013-03-21 15:55:00,34.1,27.0,29.62,NE,52,1.0,7.0,74,0.00,,,0.01,134,weatherlink.com 1.10,2013-03-21 19:55:00,
2013-03-21 16:10:00,33.8,27.0,29.61,ENE,74,0.0,9.0,75,0.00,,,0.01,139,weatherlink.com 1.10,2013-03-21 20:10:00,
2013-03-21 16:25:00,33.5,27.0,29.61,East,101,2.0,10.0,76,0.00,,,0.01,100,weatherlink.com 1.10,2013-03-21 20:25:00,
2013-03-21 16:40:00,33.4,27.0,29.61,ESE,105,3.0,9.0,76,0.00,,,0.01,62,weatherlink.com 1.10,2013-03-21 20:40:00,
2013-03-21 16:55:00,33.2,27.0,29.61,ESE,109,1.0,9.0,78,0.00,,,0.01,60,weatherlink.com 1.10,2013-03-21 20:55:00,
2013-03-21 17:10:00,32.8,27.0,29.61,ESE,111,4.0,7.0,80,0.00,,,0.01,79,weatherlink.com 1.10,2013-03-21 21:10:00,
2013-03-21 17:25:00,32.6,28.0,29.62,ESE,111,3.0,5.0,82,0.00,,,0.01,49,weatherlink.com 1.10,2013-03-21 21:25:00,
2013-03-21 17:40:00,32.4,28.0,29.62,ESE,111,0.0,4.0,82,0.00,,,0.01,44,weatherlink.com 1.10,2013-03-21 21:40:00,
2013-03-21 17:55:00,32.2,28.0,29.61,ESE,111,2.0,3.0,84,0.00,,,0.01,46,weatherlink.com 1.10,2013-03-21 21:55:00,
2013-03-21 18:10:00,32.2,29.0,29.62,ESE,111,0.0,0.0,86,0.00,,,0.01,32,weatherlink.com 1.10,2013-03-21 22:10:00,
2013-03-21 18:25:00,32.0,28.0,29.62,ESE,111,0.0,0.0,86,0.00,,,0.01,11,weatherlink.com 1.10,2013-03-21 22:25:00,
2013-03-21 18:40:00,31.9,29.0,29.62,ESE,111,0.0,0.0,87,0.00,,,0.01,0,weatherlink.com 1.10,2013-03-21 22:40:00,
2013-03-21 18:55:00,31.9,29.0,29.62,ESE,111,0.0,0.0,87,0.00,,,0.01,0,weatherlink.com 1.10,2013-03-21 22:55:00,
2013-03-21 19:10:00,31.9,29.0,29.62,ESE,111,0.0,4.0,88,0.00,,,0.01,0,weatherlink.com 1.10,2013-03-21 23:10:00,
2013-03-21 19:25:00,31.8,29.0,29.62,ESE,111,0.0,5.0,88,0.00,,,0.01,0,weatherlink.com 1.10,2013-03-21 23:25:00,
2013-03-21 19:40:00,31.7,29.0,29.62,ESE,111,3.0,3.0,88,0.00,,,0.01,0,weatherlink.com 1.10,2013-03-21 23:40:00,
2013-03-21 19:55:00,31.4,29.0,29.63,ESE,111,0.0,0.0,89,0.00,,,0.01,0,weatherlink.com 1.10,2013-03-21 23:55:00,
2013-03-21 20:10:00,31.2,28.0,29.62,ESE,111,0.0,0.0,89,0.00,,,0.01,0,weatherlink.com 1.10,2013-03-22 00:10:00,
2013-03-21 20:25:00,31.3,29.0,29.62,ESE,111,0.0,4.0,90,0.00,,,0.01,0,weatherlink.com 1.10,2013-03-22 00:25:00,
2013-03-21 20:40:00,31.4,29.0,29.62,ESE,111,3.0,4.0,90,0.00,,,0.01,0,weatherlink.com 1.10,2013-03-22 00:40:00,
2013-03-21 20:55:00,31.5,29.0,29.62,ESE,111,0.0,4.0,91,0.00,,,0.01,0,weatherlink.com 1.10,2013-03-22 00:55:00,
2013-03-21 21:10:00,31.5,29.0,29.61,ESE,111,0.0,4.0,91,0.00,,,0.01,0,weatherlink.com 1.10,2013-03-22 01:10:00,
2013-03-21 21:25:00,31.7,29.0,29.61,ESE,111,0.0,5.0,91,0.00,,,0.01,0,weatherlink.com 1.10,2013-03-22 01:25:00,
2013-03-21 21:40:00,32.0,30.0,29.61,ESE,111,2.0,8.0,91,0.00,,,0.01,0,weatherlink.com 1.10,2013-03-22 01:40:00,
2013-03-21 21:55:00,32.2,30.0,29.61,ESE,111,0.0,4.0,91,0.00,,,0.01,0,weatherlink.com 1.10,2013-03-22 01:55:00,
2013-03-21 22:10:00,32.2,30.0,29.61,ESE,111,0.0,0.0,91,0.00,,,0.01,0,weatherlink.com 1.10,2013-03-22 02:10:00,
2013-03-21 22:25:00,32.3,30.0,29.61,ESE,111,0.0,0.0,91,0.00,,,0.01,0,weatherlink.com 1.10,2013-03-22 02:25:00,
2013-03-21 22:40:00,32.4,30.0,29.60,ESE,111,0.0,0.0,91,0.00,,,0.01,0,weatherlink.com 1.10,2013-03-22 02:40:00,
2013-03-21 22:55:00,32.4,30.0,29.60,ESE,111,0.0,0.0,91,0.00,,,0.01,0,weatherlink.com 1.10,2013-03-22 02:55:00,
2013-03-21 23:10:00,32.4,30.0,29.61,ESE,111,0.0,0.0,90,0.00,,,0.01,0,weatherlink.com 1.10,2013-03-22 03:10:00,
2013-03-21 23:25:00,32.4,30.0,29.60,East,89,3.0,8.0,90,0.00,,,0.01,0,weatherlink.com 1.10,2013-03-22 03:25:00,
2013-03-21 23:40:00,32.1,29.0,29.60,East,84,0.0,0.0,89,0.00,,,0.01,0,weatherlink.com 1.10,2013-03-22 03:40:00,
2013-03-21 23:55:00,31.9,29.0,29.59,ENE,66,0.0,7.0,89,0.00,,,0.01,0,weatherlink.com 1.10,2013-03-22 03:55:00,